sensor_id;sensor_type;location;lat;lon;timestamp;pressure;altitude;pressure_sealevel;temperature;humidity
58473;BME280;44775;51.564;5.460;2023-04-26T00:01:04;101646.06;;;0.88;100.00
58473;BME280;44775;51.564;5.460;2023-04-26T00:03:30;101652.19;;;0.88;100.00
58473;BME280;44775;51.564;5.460;2023-04-26T00:05:55;101644.53;;;0.84;100.00
58473;BME280;44775;51.564;5.460;2023-04-26T00:08:20;101645.72;;;0.78;100.00
58473;BME280;44775;51.564;5.460;2023-04-26T00:10:45;101645.97;;;0.74;100.00
58473;BME280;44775;51.564;5.460;2023-04-26T00:13:10;101637.50;;;0.68;100.00
58473;BME280;44775;51.564;5.460;2023-04-26T00:15:36;101642.00;;;0.66;100.00
58473;BME280;44775;51.564;5.460;2023-04-26T00:18:01;101646.50;;;0.64;100.00
58473;BME280;44775;51.564;5.460;2023-04-26T00:20:26;101650.81;;;0.65;100.00
58473;BME280;44775;51.564;5.460;2023-04-26T00:22:51;101642.84;;;0.67;100.00
58473;BME280;44775;51.564;5.460;2023-04-26T00:25:17;101650.81;;;0.65;100.00
58473;BME280;44775;51.564;5.460;2023-04-26T00:27:42;101645.56;;;0.65;100.00
58473;BME280;44775;51.564;5.460;2023-04-26T00:30:07;101644.88;;;0.62;100.00
58473;BME280;44775;51.564;5.460;2023-04-26T00:32:33;101647.84;;;0.56;100.00
58473;BME280;44775;51.564;5.460;2023-04-26T00:34:59;101649.88;;;0.51;100.00
58473;BME280;44775;51.564;5.460;2023-04-26T00:37:24;101641.31;;;0.47;100.00
58473;BME280;44775;51.564;5.460;2023-04-26T00:39:50;101645.03;;;0.43;100.00
58473;BME280;44775;51.564;5.460;2023-04-26T00:42:15;101645.38;;;0.37;100.00
58473;BME280;44775;51.564;5.460;2023-04-26T00:44:40;101639.59;;;0.30;100.00
58473;BME280;44775;51.564;5.460;2023-04-26T00:47:05;101649.53;;;0.25;100.00
58473;BME280;44775;51.564;5.460;2023-04-26T00:49:30;101641.78;;;0.22;100.00
58473;BME280;44775;51.564;5.460;2023-04-26T00:51:56;101648.91;;;0.20;100.00
58473;BME280;44775;51.564;5.460;2023-04-26T00:54:21;101646.38;;;0.18;100.00
58473;BME280;44775;51.564;5.460;2023-04-26T00:56:47;101644.69;;;0.17;100.00
58473;BME280;44775;51.564;5.460;2023-04-26T00:59:15;101644.53;;;0.20;100.00
58473;BME280;44775;51.564;5.460;2023-04-26T01:01:41;101641.13;;;0.18;100.00
58473;BME280;44775;51.564;5.460;2023-04-26T01:04:06;101647.22;;;0.19;100.00
58473;BME280;44775;51.564;5.460;2023-04-26T01:06:32;101636.69;;;0.19;100.00
58473;BME280;44775;51.564;5.460;2023-04-26T01:08:58;101642.91;;;0.18;100.00
58473;BME280;44775;51.564;5.460;2023-04-26T01:11:24;101637.97;;;0.12;100.00
58473;BME280;44775;51.564;5.460;2023-04-26T01:13:50;101637.34;;;0.07;100.00
58473;BME280;44775;51.564;5.460;2023-04-26T01:16:15;101644.75;;;0.00;100.00
58473;BME280;44775;51.564;5.460;2023-04-26T01:18:43;101648.59;;;-0.07;100.00
58473;BME280;44775;51.564;5.460;2023-04-26T01:21:08;101643.50;;;-0.10;100.00
58473;BME280;44775;51.564;5.460;2023-04-26T01:23:35;101641.75;;;-0.10;100.00
58473;BME280;44775;51.564;5.460;2023-04-26T01:26:00;101642.66;;;-0.11;100.00
58473;BME280;44775;51.564;5.460;2023-04-26T01:28:25;101647.84;;;-0.09;100.00
58473;BME280;44775;51.564;5.460;2023-04-26T01:30:50;101648.69;;;-0.09;100.00
58473;BME280;44775;51.564;5.460;2023-04-26T01:33:16;101639.19;;;-0.11;100.00
58473;BME280;44775;51.564;5.460;2023-04-26T01:35:41;101639.97;;;-0.09;100.00
58473;BME280;44775;51.564;5.460;2023-04-26T01:38:06;101648.06;;;-0.14;100.00
58473;BME280;44775;51.564;5.460;2023-04-26T01:40:32;101652.63;;;-0.17;100.00
58473;BME280;44775;51.564;5.460;2023-04-26T01:42:57;101651.03;;;-0.20;100.00
58473;BME280;44775;51.564;5.460;2023-04-26T01:45:22;101648.63;;;-0.25;100.00
58473;BME280;44775;51.564;5.460;2023-04-26T01:47:48;101650.56;;;-0.28;100.00
58473;BME280;44775;51.564;5.460;2023-04-26T01:50:13;101652.50;;;-0.32;100.00
58473;BME280;44775;51.564;5.460;2023-04-26T01:52:38;101641.94;;;-0.30;100.00
58473;BME280;44775;51.564;5.460;2023-04-26T01:55:03;101644.56;;;-0.30;100.00
58473;BME280;44775;51.564;5.460;2023-04-26T01:57:29;101639.31;;;-0.30;100.00
58473;BME280;44775;51.564;5.460;2023-04-26T01:59:54;101646.31;;;-0.31;100.00
58473;BME280;44775;51.564;5.460;2023-04-26T02:02:20;101646.56;;;-0.35;100.00
58473;BME280;44775;51.564;5.460;2023-04-26T02:04:45;101648.50;;;-0.39;100.00
58473;BME280;44775;51.564;5.460;2023-04-26T02:07:11;101643.38;;;-0.42;100.00
58473;BME280;44775;51.564;5.460;2023-04-26T02:09:36;101653.09;;;-0.44;100.00
58473;BME280;44775;51.564;5.460;2023-04-26T02:12:01;101650.56;;;-0.45;100.00
58473;BME280;44775;51.564;5.460;2023-04-26T02:14:26;101648.03;;;-0.47;100.00
58473;BME280;44775;51.564;5.460;2023-04-26T02:16:52;101653.28;;;-0.47;100.00
58473;BME280;44775;51.564;5.460;2023-04-26T02:19:17;101648.03;;;-0.47;100.00
58473;BME280;44775;51.564;5.460;2023-04-26T02:21:55;101642.78;;;-0.47;100.00
58473;BME280;44775;51.564;5.460;2023-04-26T02:24:24;101642.16;;;-0.52;100.00
58473;BME280;44775;51.564;5.460;2023-04-26T02:26:49;101639.78;;;-0.57;100.00
58473;BME280;44775;51.564;5.460;2023-04-26T02:29:15;101643.56;;;-0.62;100.00
58473;BME280;44775;51.564;5.460;2023-04-26T02:31:40;101641.88;;;-0.63;100.00
58473;BME280;44775;51.564;5.460;2023-04-26T02:34:06;101632.44;;;-0.67;100.00
58473;BME280;44775;51.564;5.460;2023-04-26T02:36:31;101637.91;;;-0.72;100.00
58473;BME280;44775;51.564;5.460;2023-04-26T02:38:57;101631.97;;;-0.76;100.00
58473;BME280;44775;51.564;5.460;2023-04-26T02:41:22;101633.09;;;-0.81;100.00
58473;BME280;44775;51.564;5.460;2023-04-26T02:43:47;101638.53;;;-0.84;100.00
58473;BME280;44775;51.564;5.460;2023-04-26T02:46:12;101635.97;;;-0.86;100.00
58473;BME280;44775;51.564;5.460;2023-04-26T02:48:38;101636.13;;;-0.89;100.00
58473;BME280;44775;51.564;5.460;2023-04-26T02:51:04;101636.28;;;-0.92;100.00
58473;BME280;44775;51.564;5.460;2023-04-26T02:53:29;101640.91;;;-0.97;100.00
58473;BME280;44775;51.564;5.460;2023-04-26T02:55:54;101639.28;;;-1.00;100.00
58473;BME280;44775;51.564;5.460;2023-04-26T02:58:19;101636.75;;;-1.01;100.00
58473;BME280;44775;51.564;5.460;2023-04-26T03:00:48;101634.03;;;-1.00;100.00
58473;BME280;44775;51.564;5.460;2023-04-26T03:03:13;101630.47;;;-0.99;100.00
58473;BME280;44775;51.564;5.460;2023-04-26T03:05:38;101622.69;;;-1.00;100.00
58473;BME280;44775;51.564;5.460;2023-04-26T03:08:04;101628.94;;;-1.03;100.00
58473;BME280;44775;51.564;5.460;2023-04-26T03:10:30;101620.38;;;-1.06;100.00
58473;BME280;44775;51.564;5.460;2023-04-26T03:12:55;101624.81;;;-1.08;100.00
58473;BME280;44775;51.564;5.460;2023-04-26T03:15:22;101625.75;;;-1.09;100.00
58473;BME280;44775;51.564;5.460;2023-04-26T03:17:47;101624.91;;;-1.10;100.00
58473;BME280;44775;51.564;5.460;2023-04-26T03:20:13;101630.41;;;-1.14;100.00
58473;BME280;44775;51.564;5.460;2023-04-26T03:22:38;101624.22;;;-1.13;100.00
58473;BME280;44775;51.564;5.460;2023-04-26T03:25:03;101619.19;;;-1.18;100.00
58473;BME280;44775;51.564;5.460;2023-04-26T03:27:29;101616.72;;;-1.21;100.00
58473;BME280;44775;51.564;5.460;2023-04-26T03:29:54;101621.28;;;-1.25;100.00
58473;BME280;44775;51.564;5.460;2023-04-26T03:32:19;101617.06;;;-1.29;100.00
58473;BME280;44775;51.564;5.460;2023-04-26T03:34:44;101613.56;;;-1.28;100.00
58473;BME280;44775;51.564;5.460;2023-04-26T03:37:12;101616.22;;;-1.29;100.00
58473;BME280;44775;51.564;5.460;2023-04-26T03:39:38;101618.78;;;-1.28;100.00
58473;BME280;44775;51.564;5.460;2023-04-26T03:42:03;101614.59;;;-1.32;100.00
58473;BME280;44775;51.564;5.460;2023-04-26T03:44:28;101611.34;;;-1.37;100.00
58473;BME280;44775;51.564;5.460;2023-04-26T03:46:53;101608.03;;;-1.40;100.00
58473;BME280;44775;51.564;5.460;2023-04-26T03:49:18;101614.34;;;-1.45;100.00
58473;BME280;44775;51.564;5.460;2023-04-26T03:51:43;101614.56;;;-1.49;100.00
58473;BME280;44775;51.564;5.460;2023-04-26T03:54:09;101622.56;;;-1.52;100.00
58473;BME280;44775;51.564;5.460;2023-04-26T03:56:35;101618.38;;;-1.56;100.00
58473;BME280;44775;51.564;5.460;2023-04-26T03:59:00;101626.34;;;-1.58;100.00
58473;BME280;44775;51.564;5.460;2023-04-26T04:01:26;101618.47;;;-1.58;100.00
58473;BME280;44775;51.564;5.460;2023-04-26T04:03:51;101621.09;;;-1.58;100.00
58473;BME280;44775;51.564;5.460;2023-04-26T04:06:16;101616.84;;;-1.60;100.00
58473;BME280;44775;51.564;5.460;2023-04-26T04:08:42;101613.41;;;-1.62;100.00
58473;BME280;44775;51.564;5.460;2023-04-26T04:11:07;101621.16;;;-1.59;100.00
58473;BME280;44775;51.564;5.460;2023-04-26T04:13:32;101618.53;;;-1.59;100.00
58473;BME280;44775;51.564;5.460;2023-04-26T04:15:57;101621.16;;;-1.59;100.00
58473;BME280;44775;51.564;5.460;2023-04-26T04:18:22;101612.56;;;-1.63;100.00
58473;BME280;44775;51.564;5.460;2023-04-26T04:20:47;101620.59;;;-1.66;100.00
58473;BME280;44775;51.564;5.460;2023-04-26T04:23:13;101610.94;;;-1.66;100.00
58473;BME280;44775;51.564;5.460;2023-04-26T04:25:38;101619.53;;;-1.62;100.00
58473;BME280;44775;51.564;5.460;2023-04-26T04:28:03;101620.38;;;-1.61;100.00
58473;BME280;44775;51.564;5.460;2023-04-26T04:30:28;101616.13;;;-1.64;100.00
58473;BME280;44775;51.564;5.460;2023-04-26T04:32:54;101617.91;;;-1.64;100.00
58473;BME280;44775;51.564;5.460;2023-04-26T04:35:22;101620.38;;;-1.61;100.00
58473;BME280;44775;51.564;5.460;2023-04-26T04:37:49;101624.63;;;-1.59;100.00
58473;BME280;44775;51.564;5.460;2023-04-26T04:40:14;101627.03;;;-1.54;100.00
58473;BME280;44775;51.564;5.460;2023-04-26T04:42:40;101626.91;;;-1.51;100.00
58473;BME280;44775;51.564;5.460;2023-04-26T04:45:05;101631.22;;;-1.50;100.00
58473;BME280;44775;51.564;5.460;2023-04-26T04:47:30;101630.28;;;-1.49;100.00
58473;BME280;44775;51.564;5.460;2023-04-26T04:49:56;101632.75;;;-1.46;100.00
58473;BME280;44775;51.564;5.460;2023-04-26T04:52:21;101627.47;;;-1.45;100.00
58473;BME280;44775;51.564;5.460;2023-04-26T04:54:46;101637.84;;;-1.43;100.00
58473;BME280;44775;51.564;5.460;2023-04-26T04:57:12;101639.41;;;-1.39;100.00
58473;BME280;44775;51.564;5.460;2023-04-26T04:59:38;101641.75;;;-1.33;100.00
58473;BME280;44775;51.564;5.460;2023-04-26T05:02:03;101636.81;;;-1.22;100.00
58473;BME280;44775;51.564;5.460;2023-04-26T05:04:29;101647.81;;;-1.13;100.00
58473;BME280;44775;51.564;5.460;2023-04-26T05:06:57;101650.91;;;-1.05;100.00
58473;BME280;44775;51.564;5.460;2023-04-26T05:09:23;101649.53;;;-0.95;100.00
58473;BME280;44775;51.564;5.460;2023-04-26T05:11:48;101639.25;;;-0.81;100.00
58473;BME280;44775;51.564;5.460;2023-04-26T05:14:13;101644.78;;;-0.69;100.00
58473;BME280;44775;51.564;5.460;2023-04-26T05:16:38;101639.00;;;-0.59;100.00
58473;BME280;44775;51.564;5.460;2023-04-26T05:19:03;101648.19;;;-0.50;100.00
58473;BME280;44775;51.564;5.460;2023-04-26T05:21:29;101647.69;;;-0.41;100.00
58473;BME280;44775;51.564;5.460;2023-04-26T05:23:55;101651.41;;;-0.28;100.00
58473;BME280;44775;51.564;5.460;2023-04-26T05:26:20;101650.94;;;-0.18;100.00
58473;BME280;44775;51.564;5.460;2023-04-26T05:28:45;101651.31;;;-0.09;100.00
58473;BME280;44775;51.564;5.460;2023-04-26T05:31:11;101647.00;;;0.06;100.00
58473;BME280;44775;51.564;5.460;2023-04-26T05:33:36;101646.53;;;0.15;100.00
58473;BME280;44775;51.564;5.460;2023-04-26T05:36:01;101652.06;;;0.27;100.00
58473;BME280;44775;51.564;5.460;2023-04-26T05:38:26;101652.34;;;0.38;100.00
58473;BME280;44775;51.564;5.460;2023-04-26T05:40:51;101650.13;;;0.46;100.00
58473;BME280;44775;51.564;5.460;2023-04-26T05:43:17;101652.50;;;0.51;100.00
58473;BME280;44775;51.564;5.460;2023-04-26T05:45:49;101664.31;;;0.59;100.00
58473;BME280;44775;51.564;5.460;2023-04-26T05:48:14;101669.25;;;0.65;100.00
58473;BME280;44775;51.564;5.460;2023-04-26T05:50:40;101666.34;;;0.70;100.00
58473;BME280;44775;51.564;5.460;2023-04-26T05:53:05;101666.84;;;0.77;100.00
58473;BME280;44775;51.564;5.460;2023-04-26T05:55:31;101661.84;;;0.88;100.00
58473;BME280;44775;51.564;5.460;2023-04-26T05:57:56;101661.66;;;0.91;100.00
58473;BME280;44775;51.564;5.460;2023-04-26T06:00:22;101658.44;;;1.02;100.00
58473;BME280;44775;51.564;5.460;2023-04-26T06:02:47;101657.06;;;1.10;100.00
58473;BME280;44775;51.564;5.460;2023-04-26T06:05:12;101658.22;;;1.21;100.00
58473;BME280;44775;51.564;5.460;2023-04-26T06:07:37;101656.75;;;1.31;100.00
58473;BME280;44775;51.564;5.460;2023-04-26T06:10:03;101660.31;;;1.46;100.00
58473;BME280;44775;51.564;5.460;2023-04-26T06:12:28;101664.56;;;1.62;100.00
58473;BME280;44775;51.564;5.460;2023-04-26T06:14:54;101664.41;;;1.80;100.00
58473;BME280;44775;51.564;5.460;2023-04-26T06:17:19;101661.78;;;2.08;100.00
58473;BME280;44775;51.564;5.460;2023-04-26T06:19:45;101665.16;;;2.39;100.00
58473;BME280;44775;51.564;5.460;2023-04-26T06:22:10;101670.56;;;2.79;100.00
58473;BME280;44775;51.564;5.460;2023-04-26T06:24:35;101678.88;;;3.14;100.00
58473;BME280;44775;51.564;5.460;2023-04-26T06:27:00;101671.97;;;3.39;100.00
58473;BME280;44775;51.564;5.460;2023-04-26T06:29:26;101676.66;;;3.61;100.00
58473;BME280;44775;51.564;5.460;2023-04-26T06:31:51;101680.16;;;3.74;100.00
58473;BME280;44775;51.564;5.460;2023-04-26T06:34:16;101680.09;;;3.88;100.00
58473;BME280;44775;51.564;5.460;2023-04-26T06:36:41;101680.69;;;4.05;100.00
58473;BME280;44775;51.564;5.460;2023-04-26T06:39:06;101690.78;;;4.12;100.00
58473;BME280;44775;51.564;5.460;2023-04-26T06:41:32;101693.19;;;4.28;100.00
58473;BME280;44775;51.564;5.460;2023-04-26T06:43:57;101692.19;;;4.55;100.00
58473;BME280;44775;51.564;5.460;2023-04-26T06:46:22;101700.69;;;4.96;100.00
58473;BME280;44775;51.564;5.460;2023-04-26T06:48:47;101700.88;;;5.41;100.00
58473;BME280;44775;51.564;5.460;2023-04-26T06:51:13;101707.16;;;5.76;100.00
58473;BME280;44775;51.564;5.460;2023-04-26T06:53:38;101704.59;;;5.98;100.00
58473;BME280;44775;51.564;5.460;2023-04-26T06:56:03;101706.91;;;6.14;100.00
58473;BME280;44775;51.564;5.460;2023-04-26T06:58:29;101709.81;;;6.22;100.00
58473;BME280;44775;51.564;5.460;2023-04-26T07:00:54;101707.16;;;6.33;100.00
58473;BME280;44775;51.564;5.460;2023-04-26T07:03:19;101711.38;;;6.47;100.00
58473;BME280;44775;51.564;5.460;2023-04-26T07:05:44;101704.28;;;6.59;100.00
58473;BME280;44775;51.564;5.460;2023-04-26T07:08:10;101717.53;;;6.70;98.56
58473;BME280;44775;51.564;5.460;2023-04-26T07:10:35;101711.72;;;6.88;100.00
58473;BME280;44775;51.564;5.460;2023-04-26T07:13:01;101717.19;;;7.18;100.00
58473;BME280;44775;51.564;5.460;2023-04-26T07:15:26;101715.91;;;7.45;99.64
58473;BME280;44775;51.564;5.460;2023-04-26T07:17:52;101718.41;;;7.57;99.70
58473;BME280;44775;51.564;5.460;2023-04-26T07:20:17;101722.06;;;7.45;96.98
58473;BME280;44775;51.564;5.460;2023-04-26T07:22:45;101718.31;;;7.48;100.00
58473;BME280;44775;51.564;5.460;2023-04-26T07:25:10;101714.63;;;7.39;100.00
58473;BME280;44775;51.564;5.460;2023-04-26T07:27:35;101722.63;;;7.60;98.39
58473;BME280;44775;51.564;5.460;2023-04-26T07:30:01;101715.50;;;7.81;98.80
58473;BME280;44775;51.564;5.460;2023-04-26T07:32:26;101716.28;;;8.14;95.01
58473;BME280;44775;51.564;5.460;2023-04-26T07:34:51;101720.66;;;8.46;93.37
58473;BME280;44775;51.564;5.460;2023-04-26T07:37:16;101715.59;;;8.83;93.03
58473;BME280;44775;51.564;5.460;2023-04-26T07:39:42;101710.31;;;8.93;90.31
58473;BME280;44775;51.564;5.460;2023-04-26T07:42:07;101715.13;;;9.09;89.82
58473;BME280;44775;51.564;5.460;2023-04-26T07:44:32;101722.72;;;9.23;85.04
58473;BME280;44775;51.564;5.460;2023-04-26T07:46:57;101702.47;;;9.20;88.69
58473;BME280;44775;51.564;5.460;2023-04-26T07:49:22;101711.91;;;9.15;83.63
58473;BME280;44775;51.564;5.460;2023-04-26T07:51:48;101710.50;;;9.30;85.49
58473;BME280;44775;51.564;5.460;2023-04-26T07:54:15;101709.97;;;9.46;85.19
58473;BME280;44775;51.564;5.460;2023-04-26T07:56:40;101715.00;;;9.49;80.89
58473;BME280;44775;51.564;5.460;2023-04-26T07:59:05;101715.41;;;9.83;81.07
58473;BME280;44775;51.564;5.460;2023-04-26T08:01:30;101712.56;;;10.04;69.25
58473;BME280;44775;51.564;5.460;2023-04-26T08:03:56;101720.16;;;10.56;78.27
58473;BME280;44775;51.564;5.460;2023-04-26T08:06:21;101725.28;;;11.22;78.17
58473;BME280;44775;51.564;5.460;2023-04-26T08:08:46;101734.84;;;11.61;62.59
58473;BME280;44775;51.564;5.460;2023-04-26T08:11:14;101736.22;;;12.00;61.93
58473;BME280;44775;51.564;5.460;2023-04-26T08:13:39;101734.69;;;11.80;63.44
58473;BME280;44775;51.564;5.460;2023-04-26T08:16:05;101740.03;;;11.98;65.39
58473;BME280;44775;51.564;5.460;2023-04-26T08:18:30;101740.34;;;12.13;67.27
58473;BME280;44775;51.564;5.460;2023-04-26T08:20:55;101738.81;;;12.36;60.44
58473;BME280;44775;51.564;5.460;2023-04-26T08:23:21;101737.47;;;12.40;62.18
58473;BME280;44775;51.564;5.460;2023-04-26T08:25:46;101731.13;;;11.71;58.61
58473;BME280;44775;51.564;5.460;2023-04-26T08:28:13;101729.69;;;11.14;60.10
58473;BME280;44775;51.564;5.460;2023-04-26T08:30:39;101729.31;;;11.08;69.08
58473;BME280;44775;51.564;5.460;2023-04-26T08:33:04;101733.44;;;11.03;58.34
58473;BME280;44775;51.564;5.460;2023-04-26T08:35:29;101725.09;;;11.06;64.39
58473;BME280;44775;51.564;5.460;2023-04-26T08:37:55;101731.41;;;11.15;57.53
58473;BME280;44775;51.564;5.460;2023-04-26T08:40:23;101735.03;;;11.14;62.16
58473;BME280;44775;51.564;5.460;2023-04-26T08:42:49;101733.09;;;11.33;63.29
58473;BME280;44775;51.564;5.460;2023-04-26T08:45:16;101733.00;;;11.07;52.30
58473;BME280;44775;51.564;5.460;2023-04-26T08:50:25;101720.19;;;10.83;63.99
58473;BME280;44775;51.564;5.460;2023-04-26T08:52:51;101722.91;;;10.74;59.88
58473;BME280;44775;51.564;5.460;2023-04-26T08:55:17;101730.69;;;10.67;58.44
58473;BME280;44775;51.564;5.460;2023-04-26T08:57:47;101720.41;;;10.62;61.14
58473;BME280;44775;51.564;5.460;2023-04-26T09:00:13;101727.09;;;10.76;62.20
58473;BME280;44775;51.564;5.460;2023-04-26T09:02:39;101726.88;;;10.97;59.48
58473;BME280;44775;51.564;5.460;2023-04-26T09:05:08;101727.13;;;11.22;57.61
58473;BME280;44775;51.564;5.460;2023-04-26T09:07:40;101714.03;;;11.72;61.12
58473;BME280;44775;51.564;5.460;2023-04-26T09:10:06;101723.19;;;12.32;54.51
58473;BME280;44775;51.564;5.460;2023-04-26T09:12:33;101720.34;;;12.07;52.64
58473;BME280;44775;51.564;5.460;2023-04-26T09:14:59;101716.94;;;11.97;55.23
58473;BME280;44775;51.564;5.460;2023-04-26T09:19:50;101719.94;;;11.76;52.68
58473;BME280;44775;51.564;5.460;2023-04-26T09:22:26;101716.81;;;11.63;49.80
58473;BME280;44775;51.564;5.460;2023-04-26T09:24:51;101710.94;;;11.41;54.11
58473;BME280;44775;51.564;5.460;2023-04-26T09:27:17;101714.28;;;11.79;51.64
58473;BME280;44775;51.564;5.460;2023-04-26T09:29:58;101710.94;;;11.41;55.43
58473;BME280;44775;51.564;5.460;2023-04-26T09:32:24;101711.16;;;11.48;55.94
58473;BME280;44775;51.564;5.460;2023-04-26T09:34:50;101712.91;;;11.75;51.95
58473;BME280;44775;51.564;5.460;2023-04-26T09:37:15;101711.88;;;12.12;51.77
58473;BME280;44775;51.564;5.460;2023-04-26T09:39:41;101714.22;;;11.89;50.78
58473;BME280;44775;51.564;5.460;2023-04-26T09:42:07;101723.13;;;11.79;51.50
58473;BME280;44775;51.564;5.460;2023-04-26T09:44:32;101726.13;;;11.76;48.86
58473;BME280;44775;51.564;5.460;2023-04-26T09:49:24;101714.34;;;11.16;52.03
58473;BME280;44775;51.564;5.460;2023-04-26T09:52:03;101719.63;;;11.43;52.83
58473;BME280;44775;51.564;5.460;2023-04-26T09:54:36;101719.97;;;11.58;51.96
58473;BME280;44775;51.564;5.460;2023-04-26T09:57:01;101706.84;;;11.91;51.34
58473;BME280;44775;51.564;5.460;2023-04-26T09:59:37;101715.56;;;11.57;50.84
58473;BME280;44775;51.564;5.460;2023-04-26T10:02:02;101718.88;;;11.33;51.99
58473;BME280;44775;51.564;5.460;2023-04-26T10:04:28;101710.53;;;11.18;55.38
58473;BME280;44775;51.564;5.460;2023-04-26T10:06:53;101715.47;;;11.13;53.69
58473;BME280;44775;51.564;5.460;2023-04-26T10:09:19;101708.75;;;11.09;55.53
58473;BME280;44775;51.564;5.460;2023-04-26T10:11:44;101714.09;;;10.91;53.93
58473;BME280;44775;51.564;5.460;2023-04-26T10:14:09;101710.75;;;10.79;53.84
58473;BME280;44775;51.564;5.460;2023-04-26T10:16:35;101718.28;;;10.66;54.09
58473;BME280;44775;51.564;5.460;2023-04-26T10:19:01;101714.47;;;10.41;53.58
58473;BME280;44775;51.564;5.460;2023-04-26T10:21:27;101719.28;;;10.28;53.46
58473;BME280;44775;51.564;5.460;2023-04-26T10:23:55;101714.66;;;10.30;58.07
58473;BME280;44775;51.564;5.460;2023-04-26T10:29:04;101712.00;;;10.10;51.97
58473;BME280;44775;51.564;5.460;2023-04-26T10:34:17;101700.00;;;10.24;57.58
58473;BME280;44775;51.564;5.460;2023-04-26T10:39:26;101703.31;;;10.46;52.65
58473;BME280;44775;51.564;5.460;2023-04-26T10:41:53;101711.59;;;10.80;49.98
58473;BME280;44775;51.564;5.460;2023-04-26T10:44:40;101702.19;;;10.48;52.78
58473;BME280;44775;51.564;5.460;2023-04-26T10:47:06;101704.91;;;10.66;51.97
58473;BME280;44775;51.564;5.460;2023-04-26T10:49:44;101699.34;;;10.87;53.50
58473;BME280;44775;51.564;5.460;2023-04-26T10:52:11;101705.25;;;11.26;51.31
58473;BME280;44775;51.564;5.460;2023-04-26T10:54:50;101700.16;;;11.51;51.83
58473;BME280;44775;51.564;5.460;2023-04-26T10:57:15;101693.75;;;11.88;50.55
58473;BME280;44775;51.564;5.460;2023-04-26T11:02:43;101691.31;;;12.55;50.66
58473;BME280;44775;51.564;5.460;2023-04-26T11:05:09;101691.81;;;13.09;49.95
58473;BME280;44775;51.564;5.460;2023-04-26T11:07:34;101698.81;;;13.44;48.31
58473;BME280;44775;51.564;5.460;2023-04-26T11:10:00;101697.75;;;14.02;45.42
58473;BME280;44775;51.564;5.460;2023-04-26T11:12:25;101695.81;;;14.44;44.74
58473;BME280;44775;51.564;5.460;2023-04-26T11:14:50;101694.06;;;14.11;42.27
58473;BME280;44775;51.564;5.460;2023-04-26T11:17:17;101685.84;;;13.97;44.47
58473;BME280;44775;51.564;5.460;2023-04-26T11:19:42;101684.34;;;13.94;46.53
58473;BME280;44775;51.564;5.460;2023-04-26T11:22:10;101691.00;;;14.23;46.28
58473;BME280;44775;51.564;5.460;2023-04-26T11:24:36;101682.06;;;14.38;47.63
58473;BME280;44775;51.564;5.460;2023-04-26T11:27:09;101677.16;;;14.50;46.66
58473;BME280;44775;51.564;5.460;2023-04-26T11:29:34;101684.03;;;14.53;44.58
58473;BME280;44775;51.564;5.460;2023-04-26T11:32:00;101679.88;;;14.34;47.23
58473;BME280;44775;51.564;5.460;2023-04-26T11:34:35;101666.56;;;14.40;47.55
58473;BME280;44775;51.564;5.460;2023-04-26T11:37:02;101659.06;;;14.75;47.67
58473;BME280;44775;51.564;5.460;2023-04-26T11:39:30;101660.00;;;15.14;44.05
58473;BME280;44775;51.564;5.460;2023-04-26T11:42:03;101669.97;;;15.05;46.25
58473;BME280;44775;51.564;5.460;2023-04-26T11:44:29;101672.03;;;15.03;43.38
58473;BME280;44775;51.564;5.460;2023-04-26T11:46:54;101670.72;;;14.99;45.97
58473;BME280;44775;51.564;5.460;2023-04-26T11:49:19;101674.50;;;15.13;43.11
58473;BME280;44775;51.564;5.460;2023-04-26T11:51:46;101678.72;;;15.07;43.91
58473;BME280;44775;51.564;5.460;2023-04-26T11:54:25;101675.91;;;15.00;43.06
58473;BME280;44775;51.564;5.460;2023-04-26T11:56:50;101677.22;;;15.04;40.14
58473;BME280;44775;51.564;5.460;2023-04-26T11:59:22;101685.28;;;15.04;45.21
58473;BME280;44775;51.564;5.460;2023-04-26T12:01:49;101680.53;;;15.38;43.25
58473;BME280;44775;51.564;5.460;2023-04-26T12:04:14;101684.53;;;15.42;39.56
58473;BME280;44775;51.564;5.460;2023-04-26T12:06:43;101682.03;;;15.40;44.75
58473;BME280;44775;51.564;5.460;2023-04-26T12:09:08;101691.91;;;15.48;38.20
58473;BME280;44775;51.564;5.460;2023-04-26T12:11:35;101679.44;;;15.24;42.23
58473;BME280;44775;51.564;5.460;2023-04-26T12:14:00;101673.81;;;15.56;41.37
58473;BME280;44775;51.564;5.460;2023-04-26T12:16:26;101672.72;;;15.89;40.42
58473;BME280;44775;51.564;5.460;2023-04-26T12:18:51;101676.13;;;15.82;42.57
58473;BME280;44775;51.564;5.460;2023-04-26T12:21:16;101675.72;;;15.94;43.52
58473;BME280;44775;51.564;5.460;2023-04-26T12:23:42;101675.06;;;16.07;41.58
58473;BME280;44775;51.564;5.460;2023-04-26T12:26:11;101669.19;;;16.03;43.38
58473;BME280;44775;51.564;5.460;2023-04-26T12:28:37;101670.78;;;16.12;38.98
58473;BME280;44775;51.564;5.460;2023-04-26T12:31:02;101674.81;;;15.55;39.78
58473;BME280;44775;51.564;5.460;2023-04-26T12:33:28;101670.69;;;15.22;41.76
58473;BME280;44775;51.564;5.460;2023-04-26T12:35:53;101681.69;;;14.89;41.14
58473;BME280;44775;51.564;5.460;2023-04-26T12:38:18;101676.19;;;14.74;43.19
58473;BME280;44775;51.564;5.460;2023-04-26T12:40:44;101678.44;;;15.02;41.14
58473;BME280;44775;51.564;5.460;2023-04-26T12:43:09;101684.72;;;15.17;40.93
58473;BME280;44775;51.564;5.460;2023-04-26T12:45:35;101675.44;;;15.20;38.62
58473;BME280;44775;51.564;5.460;2023-04-26T12:48:00;101673.28;;;15.15;41.27
58473;BME280;44775;51.564;5.460;2023-04-26T12:50:26;101686.06;;;14.90;38.65
58473;BME280;44775;51.564;5.460;2023-04-26T12:52:51;101677.97;;;14.59;41.32
58473;BME280;44775;51.564;5.460;2023-04-26T12:55:17;101677.63;;;14.62;41.34
58473;BME280;44775;51.564;5.460;2023-04-26T12:57:43;101681.03;;;14.87;39.54
58473;BME280;44775;51.564;5.460;2023-04-26T13:00:09;101681.22;;;14.85;40.64